Terminal Aerodrome Forecast
Issued by NWS

Home | Current Version | Previous Version | Graphics & Text | Print | Product List | Glossary On
Versions: 1 2 3 4 5 6 7 8 9 10 11 12 13 14 15 16 17 18 19 20 21 22 23 24 25 26 27 28
258
FTUS43 KABR 121122
TAFPIR
TAF
KPIR 121122Z 1212/1312 02011KT P6SM OVC025
     FM121800 05012KT P6SM BKN050
     FM130600 11012KT P6SM OVC050=

USA.gov is the U.S. government's official web portal to all federal, state and local government web resources and services.